sensor_id;sensor_type;location;lat;lon;timestamp;P1;durP1;ratioP1;P2;durP2;ratioP2
15936;SDS011;9163;48.818;8.976;2024-02-26T00:02:23;3.03;;;2.20;;
15936;SDS011;9163;48.818;8.976;2024-02-26T00:04:51;3.40;;;2.17;;
15936;SDS011;9163;48.818;8.976;2024-02-26T00:07:19;3.20;;;2.20;;
15936;SDS011;9163;48.818;8.976;2024-02-26T00:09:46;3.50;;;2.53;;
15936;SDS011;9163;48.818;8.976;2024-02-26T00:12:13;3.20;;;2.27;;
15936;SDS011;9163;48.818;8.976;2024-02-26T00:14:40;3.07;;;2.10;;
15936;SDS011;9163;48.818;8.976;2024-02-26T00:17:08;4.00;;;2.40;;
15936;SDS011;9163;48.818;8.976;2024-02-26T00:19:35;3.67;;;2.27;;
15936;SDS011;9163;48.818;8.976;2024-02-26T00:22:04;3.17;;;2.10;;
15936;SDS011;9163;48.818;8.976;2024-02-26T00:24:31;5.57;;;2.73;;
15936;SDS011;9163;48.818;8.976;2024-02-26T00:26:58;4.80;;;2.60;;
15936;SDS011;9163;48.818;8.976;2024-02-26T00:29:26;4.47;;;2.43;;
15936;SDS011;9163;48.818;8.976;2024-02-26T00:31:53;3.70;;;2.20;;
15936;SDS011;9163;48.818;8.976;2024-02-26T00:34:20;5.60;;;2.20;;
15936;SDS011;9163;48.818;8.976;2024-02-26T00:36:47;3.50;;;2.57;;
15936;SDS011;9163;48.818;8.976;2024-02-26T00:39:16;3.23;;;2.33;;
15936;SDS011;9163;48.818;8.976;2024-02-26T00:41:43;3.70;;;2.40;;
15936;SDS011;9163;48.818;8.976;2024-02-26T00:44:10;3.83;;;2.43;;
15936;SDS011;9163;48.818;8.976;2024-02-26T00:46:38;3.80;;;2.60;;
15936;SDS011;9163;48.818;8.976;2024-02-26T00:49:05;3.23;;;2.30;;
15936;SDS011;9163;48.818;8.976;2024-02-26T00:51:32;3.33;;;2.43;;
15936;SDS011;9163;48.818;8.976;2024-02-26T00:53:59;3.03;;;2.10;;
15936;SDS011;9163;48.818;8.976;2024-02-26T00:56:29;4.57;;;2.57;;
15936;SDS011;9163;48.818;8.976;2024-02-26T00:58:56;2.70;;;2.20;;
15936;SDS011;9163;48.818;8.976;2024-02-26T01:01:23;2.93;;;2.10;;
15936;SDS011;9163;48.818;8.976;2024-02-26T01:03:50;3.13;;;2.20;;
15936;SDS011;9163;48.818;8.976;2024-02-26T01:06:17;2.87;;;2.00;;
15936;SDS011;9163;48.818;8.976;2024-02-26T01:08:45;3.67;;;2.00;;
15936;SDS011;9163;48.818;8.976;2024-02-26T01:11:12;2.60;;;1.93;;
15936;SDS011;9163;48.818;8.976;2024-02-26T01:13:41;2.77;;;1.93;;
15936;SDS011;9163;48.818;8.976;2024-02-26T01:16:08;2.93;;;2.10;;
15936;SDS011;9163;48.818;8.976;2024-02-26T01:18:36;2.67;;;1.87;;
15936;SDS011;9163;48.818;8.976;2024-02-26T01:21:03;2.63;;;1.80;;
15936;SDS011;9163;48.818;8.976;2024-02-26T01:23:32;2.63;;;1.90;;
15936;SDS011;9163;48.818;8.976;2024-02-26T01:25:59;2.23;;;1.70;;
15936;SDS011;9163;48.818;8.976;2024-02-26T01:28:28;1.77;;;1.47;;
15936;SDS011;9163;48.818;8.976;2024-02-26T01:30:56;1.50;;;1.10;;
15936;SDS011;9163;48.818;8.976;2024-02-26T01:33:25;1.20;;;0.90;;
15936;SDS011;9163;48.818;8.976;2024-02-26T01:35:53;1.60;;;1.30;;
15936;SDS011;9163;48.818;8.976;2024-02-26T01:38:20;3.37;;;1.83;;
15936;SDS011;9163;48.818;8.976;2024-02-26T01:40:47;3.40;;;1.70;;
15936;SDS011;9163;48.818;8.976;2024-02-26T01:43:14;3.27;;;1.80;;
15936;SDS011;9163;48.818;8.976;2024-02-26T01:45:41;2.30;;;1.73;;
15936;SDS011;9163;48.818;8.976;2024-02-26T01:48:10;3.67;;;2.03;;
15936;SDS011;9163;48.818;8.976;2024-02-26T01:50:38;3.77;;;2.10;;
15936;SDS011;9163;48.818;8.976;2024-02-26T01:53:07;3.13;;;2.03;;
15936;SDS011;9163;48.818;8.976;2024-02-26T01:55:35;2.83;;;1.93;;
15936;SDS011;9163;48.818;8.976;2024-02-26T01:58:03;3.17;;;1.90;;
15936;SDS011;9163;48.818;8.976;2024-02-26T02:00:32;2.60;;;1.77;;
15936;SDS011;9163;48.818;8.976;2024-02-26T02:02:59;3.20;;;1.80;;
15936;SDS011;9163;48.818;8.976;2024-02-26T02:05:29;3.70;;;1.87;;
15936;SDS011;9163;48.818;8.976;2024-02-26T02:07:57;2.10;;;1.80;;
15936;SDS011;9163;48.818;8.976;2024-02-26T02:10:25;3.03;;;1.80;;
15936;SDS011;9163;48.818;8.976;2024-02-26T02:12:54;3.03;;;1.80;;
15936;SDS011;9163;48.818;8.976;2024-02-26T02:15:21;3.40;;;1.60;;
15936;SDS011;9163;48.818;8.976;2024-02-26T02:17:48;3.90;;;1.90;;
15936;SDS011;9163;48.818;8.976;2024-02-26T02:20:16;3.27;;;1.80;;
15936;SDS011;9163;48.818;8.976;2024-02-26T02:22:45;2.40;;;1.80;;
15936;SDS011;9163;48.818;8.976;2024-02-26T02:25:13;4.00;;;1.83;;
15936;SDS011;9163;48.818;8.976;2024-02-26T02:27:40;3.33;;;1.77;;
15936;SDS011;9163;48.818;8.976;2024-02-26T02:30:09;1.50;;;1.30;;
15936;SDS011;9163;48.818;8.976;2024-02-26T02:32:37;1.80;;;1.50;;
15936;SDS011;9163;48.818;8.976;2024-02-26T02:35:07;1.73;;;1.20;;
15936;SDS011;9163;48.818;8.976;2024-02-26T02:37:34;2.03;;;1.23;;
15936;SDS011;9163;48.818;8.976;2024-02-26T02:40:04;2.13;;;1.30;;
15936;SDS011;9163;48.818;8.976;2024-02-26T02:42:32;1.47;;;1.00;;
15936;SDS011;9163;48.818;8.976;2024-02-26T02:45:00;1.00;;;0.80;;
15936;SDS011;9163;48.818;8.976;2024-02-26T02:47:27;2.60;;;1.00;;
15936;SDS011;9163;48.818;8.976;2024-02-26T02:49:54;1.77;;;1.10;;
15936;SDS011;9163;48.818;8.976;2024-02-26T02:52:22;1.57;;;0.90;;
15936;SDS011;9163;48.818;8.976;2024-02-26T02:54:49;1.30;;;0.80;;
15936;SDS011;9163;48.818;8.976;2024-02-26T02:57:18;1.37;;;1.00;;
15936;SDS011;9163;48.818;8.976;2024-02-26T02:59:46;1.30;;;1.00;;
15936;SDS011;9163;48.818;8.976;2024-02-26T03:02:13;1.47;;;0.80;;
15936;SDS011;9163;48.818;8.976;2024-02-26T03:04:40;0.67;;;0.60;;
15936;SDS011;9163;48.818;8.976;2024-02-26T03:07:08;1.00;;;0.80;;
15936;SDS011;9163;48.818;8.976;2024-02-26T03:09:35;1.00;;;0.60;;
15936;SDS011;9163;48.818;8.976;2024-02-26T03:12:01;0.90;;;0.63;;
15936;SDS011;9163;48.818;8.976;2024-02-26T03:14:30;0.60;;;0.53;;
15936;SDS011;9163;48.818;8.976;2024-02-26T03:16:57;1.03;;;0.77;;
15936;SDS011;9163;48.818;8.976;2024-02-26T03:19:24;1.83;;;0.70;;
15936;SDS011;9163;48.818;8.976;2024-02-26T03:21:51;0.90;;;0.60;;
15936;SDS011;9163;48.818;8.976;2024-02-26T03:24:19;2.50;;;0.80;;
15936;SDS011;9163;48.818;8.976;2024-02-26T03:26:46;0.70;;;0.60;;
15936;SDS011;9163;48.818;8.976;2024-02-26T03:29:13;1.03;;;0.60;;
15936;SDS011;9163;48.818;8.976;2024-02-26T03:31:42;1.73;;;0.53;;
15936;SDS011;9163;48.818;8.976;2024-02-26T03:34:09;0.80;;;0.70;;
15936;SDS011;9163;48.818;8.976;2024-02-26T03:36:38;0.80;;;0.50;;
15936;SDS011;9163;48.818;8.976;2024-02-26T03:39:05;0.80;;;0.63;;
15936;SDS011;9163;48.818;8.976;2024-02-26T03:41:33;1.00;;;0.70;;
15936;SDS011;9163;48.818;8.976;2024-02-26T03:44:00;0.70;;;0.60;;
15936;SDS011;9163;48.818;8.976;2024-02-26T03:46:27;2.03;;;0.80;;
15936;SDS011;9163;48.818;8.976;2024-02-26T03:48:56;1.50;;;0.80;;
15936;SDS011;9163;48.818;8.976;2024-02-26T03:51:23;0.77;;;0.60;;
15936;SDS011;9163;48.818;8.976;2024-02-26T03:53:50;1.30;;;0.63;;
15936;SDS011;9163;48.818;8.976;2024-02-26T03:56:18;2.10;;;0.70;;
15936;SDS011;9163;48.818;8.976;2024-02-26T03:58:46;0.90;;;0.60;;
15936;SDS011;9163;48.818;8.976;2024-02-26T04:01:13;0.70;;;0.57;;
15936;SDS011;9163;48.818;8.976;2024-02-26T04:03:41;0.63;;;0.60;;
15936;SDS011;9163;48.818;8.976;2024-02-26T04:06:10;2.07;;;0.70;;
15936;SDS011;9163;48.818;8.976;2024-02-26T04:08:39;1.23;;;0.40;;
15936;SDS011;9163;48.818;8.976;2024-02-26T04:11:07;0.57;;;0.50;;
15936;SDS011;9163;48.818;8.976;2024-02-26T04:13:35;0.87;;;0.67;;
15936;SDS011;9163;48.818;8.976;2024-02-26T04:16:03;1.53;;;0.60;;
15936;SDS011;9163;48.818;8.976;2024-02-26T04:18:31;0.80;;;0.63;;
15936;SDS011;9163;48.818;8.976;2024-02-26T04:20:58;1.20;;;0.70;;
15936;SDS011;9163;48.818;8.976;2024-02-26T04:23:27;1.40;;;0.80;;
15936;SDS011;9163;48.818;8.976;2024-02-26T04:25:54;1.00;;;0.60;;
15936;SDS011;9163;48.818;8.976;2024-02-26T04:28:21;0.50;;;0.50;;
15936;SDS011;9163;48.818;8.976;2024-02-26T04:30:51;0.40;;;0.40;;
15936;SDS011;9163;48.818;8.976;2024-02-26T04:33:18;0.77;;;0.60;;
15936;SDS011;9163;48.818;8.976;2024-02-26T04:35:45;0.53;;;0.53;;
15936;SDS011;9163;48.818;8.976;2024-02-26T04:38:12;1.20;;;0.60;;
15936;SDS011;9163;48.818;8.976;2024-02-26T04:40:41;0.87;;;0.60;;
15936;SDS011;9163;48.818;8.976;2024-02-26T04:43:08;0.90;;;0.60;;
15936;SDS011;9163;48.818;8.976;2024-02-26T04:45:35;1.00;;;0.60;;
15936;SDS011;9163;48.818;8.976;2024-02-26T04:48:03;0.93;;;0.70;;
15936;SDS011;9163;48.818;8.976;2024-02-26T04:50:30;1.40;;;0.80;;
15936;SDS011;9163;48.818;8.976;2024-02-26T04:52:57;1.50;;;1.00;;
15936;SDS011;9163;48.818;8.976;2024-02-26T04:55:24;3.77;;;1.10;;
15936;SDS011;9163;48.818;8.976;2024-02-26T04:57:53;2.03;;;1.10;;
15936;SDS011;9163;48.818;8.976;2024-02-26T05:00:20;1.73;;;1.10;;
15936;SDS011;9163;48.818;8.976;2024-02-26T05:02:47;1.70;;;1.10;;
15936;SDS011;9163;48.818;8.976;2024-02-26T05:05:15;2.30;;;1.37;;
15936;SDS011;9163;48.818;8.976;2024-02-26T05:07:42;2.10;;;1.23;;
15936;SDS011;9163;48.818;8.976;2024-02-26T05:10:10;1.80;;;1.10;;
15936;SDS011;9163;48.818;8.976;2024-02-26T05:12:37;2.13;;;1.17;;
15936;SDS011;9163;48.818;8.976;2024-02-26T05:15:06;1.33;;;1.07;;
15936;SDS011;9163;48.818;8.976;2024-02-26T05:17:34;1.37;;;1.23;;
15936;SDS011;9163;48.818;8.976;2024-02-26T05:20:01;1.60;;;1.10;;
15936;SDS011;9163;48.818;8.976;2024-02-26T05:22:28;1.87;;;0.90;;
15936;SDS011;9163;48.818;8.976;2024-02-26T05:24:56;2.13;;;0.93;;
15936;SDS011;9163;48.818;8.976;2024-02-26T05:27:23;1.17;;;0.93;;
15936;SDS011;9163;48.818;8.976;2024-02-26T05:29:50;1.63;;;1.10;;
15936;SDS011;9163;48.818;8.976;2024-02-26T05:32:21;2.30;;;1.50;;
15936;SDS011;9163;48.818;8.976;2024-02-26T05:34:48;3.43;;;1.93;;
15936;SDS011;9163;48.818;8.976;2024-02-26T05:37:15;2.03;;;1.50;;
15936;SDS011;9163;48.818;8.976;2024-02-26T05:39:42;2.27;;;1.40;;
15936;SDS011;9163;48.818;8.976;2024-02-26T05:42:10;1.63;;;1.40;;
15936;SDS011;9163;48.818;8.976;2024-02-26T05:44:37;2.23;;;1.40;;
15936;SDS011;9163;48.818;8.976;2024-02-26T05:47:04;2.37;;;1.23;;
15936;SDS011;9163;48.818;8.976;2024-02-26T05:49:33;1.70;;;0.90;;
15936;SDS011;9163;48.818;8.976;2024-02-26T05:52:00;1.77;;;1.10;;
15936;SDS011;9163;48.818;8.976;2024-02-26T05:54:27;1.77;;;1.00;;
15936;SDS011;9163;48.818;8.976;2024-02-26T05:56:54;1.67;;;1.20;;
15936;SDS011;9163;48.818;8.976;2024-02-26T05:59:22;2.50;;;1.33;;
15936;SDS011;9163;48.818;8.976;2024-02-26T06:01:49;3.03;;;1.37;;
15936;SDS011;9163;48.818;8.976;2024-02-26T06:04:16;4.33;;;1.80;;
15936;SDS011;9163;48.818;8.976;2024-02-26T06:06:45;3.50;;;1.80;;
15936;SDS011;9163;48.818;8.976;2024-02-26T06:09:12;2.60;;;1.40;;
15936;SDS011;9163;48.818;8.976;2024-02-26T06:11:39;4.37;;;2.30;;
15936;SDS011;9163;48.818;8.976;2024-02-26T06:14:07;3.50;;;1.70;;
15936;SDS011;9163;48.818;8.976;2024-02-26T06:16:35;3.10;;;1.70;;
15936;SDS011;9163;48.818;8.976;2024-02-26T06:19:09;2.77;;;1.80;;
15936;SDS011;9163;48.818;8.976;2024-02-26T06:21:38;2.50;;;1.73;;
15936;SDS011;9163;48.818;8.976;2024-02-26T06:24:07;2.13;;;1.57;;
15936;SDS011;9163;48.818;8.976;2024-02-26T06:26:34;1.73;;;1.10;;
15936;SDS011;9163;48.818;8.976;2024-02-26T06:29:01;3.83;;;2.23;;
15936;SDS011;9163;48.818;8.976;2024-02-26T06:31:28;4.97;;;2.80;;
15936;SDS011;9163;48.818;8.976;2024-02-26T06:33:55;3.80;;;2.47;;
15936;SDS011;9163;48.818;8.976;2024-02-26T06:36:23;6.03;;;2.50;;
15936;SDS011;9163;48.818;8.976;2024-02-26T06:38:51;4.47;;;2.30;;
15936;SDS011;9163;48.818;8.976;2024-02-26T06:41:20;4.53;;;2.63;;
15936;SDS011;9163;48.818;8.976;2024-02-26T06:43:52;5.20;;;2.80;;
15936;SDS011;9163;48.818;8.976;2024-02-26T06:46:19;5.47;;;3.43;;
15936;SDS011;9163;48.818;8.976;2024-02-26T06:48:47;6.43;;;3.70;;
15936;SDS011;9163;48.818;8.976;2024-02-26T06:51:14;6.13;;;2.93;;
15936;SDS011;9163;48.818;8.976;2024-02-26T06:53:42;3.20;;;1.90;;
15936;SDS011;9163;48.818;8.976;2024-02-26T06:56:09;6.17;;;1.70;;
15936;SDS011;9163;48.818;8.976;2024-02-26T06:58:37;2.13;;;1.10;;
15936;SDS011;9163;48.818;8.976;2024-02-26T07:01:05;2.00;;;1.23;;
15936;SDS011;9163;48.818;8.976;2024-02-26T07:03:33;1.33;;;0.90;;
15936;SDS011;9163;48.818;8.976;2024-02-26T07:06:01;2.13;;;1.30;;
15936;SDS011;9163;48.818;8.976;2024-02-26T07:08:29;1.53;;;1.27;;
15936;SDS011;9163;48.818;8.976;2024-02-26T07:10:56;1.97;;;1.40;;
15936;SDS011;9163;48.818;8.976;2024-02-26T07:13:23;1.50;;;1.10;;
15936;SDS011;9163;48.818;8.976;2024-02-26T07:15:52;2.07;;;1.33;;
15936;SDS011;9163;48.818;8.976;2024-02-26T07:18:19;1.87;;;1.30;;
15936;SDS011;9163;48.818;8.976;2024-02-26T07:20:47;1.57;;;1.40;;
15936;SDS011;9163;48.818;8.976;2024-02-26T07:23:14;2.00;;;1.80;;
15936;SDS011;9163;48.818;8.976;2024-02-26T07:25:41;3.77;;;2.30;;
15936;SDS011;9163;48.818;8.976;2024-02-26T07:28:10;3.03;;;2.60;;
15936;SDS011;9163;48.818;8.976;2024-02-26T07:30:37;3.60;;;2.00;;
15936;SDS011;9163;48.818;8.976;2024-02-26T07:33:06;3.17;;;2.23;;
15936;SDS011;9163;48.818;8.976;2024-02-26T07:35:34;3.23;;;2.67;;
15936;SDS011;9163;48.818;8.976;2024-02-26T07:38:02;3.87;;;1.80;;
15936;SDS011;9163;48.818;8.976;2024-02-26T07:40:29;1.67;;;1.20;;
15936;SDS011;9163;48.818;8.976;2024-02-26T07:42:56;1.53;;;1.20;;
15936;SDS011;9163;48.818;8.976;2024-02-26T07:45:24;1.97;;;1.70;;
15936;SDS011;9163;48.818;8.976;2024-02-26T07:47:51;2.93;;;2.47;;
15936;SDS011;9163;48.818;8.976;2024-02-26T07:50:19;2.23;;;1.87;;
15936;SDS011;9163;48.818;8.976;2024-02-26T07:52:47;3.33;;;1.40;;
15936;SDS011;9163;48.818;8.976;2024-02-26T07:55:16;2.73;;;1.20;;
15936;SDS011;9163;48.818;8.976;2024-02-26T07:57:44;2.63;;;1.40;;
15936;SDS011;9163;48.818;8.976;2024-02-26T08:00:12;3.20;;;1.37;;
15936;SDS011;9163;48.818;8.976;2024-02-26T08:02:42;1.27;;;1.17;;
15936;SDS011;9163;48.818;8.976;2024-02-26T08:05:09;2.43;;;1.43;;
15936;SDS011;9163;48.818;8.976;2024-02-26T08:07:38;3.60;;;1.30;;
15936;SDS011;9163;48.818;8.976;2024-02-26T08:10:06;2.80;;;1.13;;
15936;SDS011;9163;48.818;8.976;2024-02-26T08:12:34;3.13;;;1.17;;
15936;SDS011;9163;48.818;8.976;2024-02-26T08:15:01;3.03;;;1.20;;
15936;SDS011;9163;48.818;8.976;2024-02-26T08:17:28;3.90;;;1.13;;
15936;SDS011;9163;48.818;8.976;2024-02-26T08:19:56;4.10;;;1.40;;
15936;SDS011;9163;48.818;8.976;2024-02-26T08:22:23;2.47;;;1.13;;
15936;SDS011;9163;48.818;8.976;2024-02-26T08:24:52;2.43;;;1.30;;
15936;SDS011;9163;48.818;8.976;2024-02-26T08:27:19;2.73;;;1.30;;
15936;SDS011;9163;48.818;8.976;2024-02-26T08:29:46;1.77;;;1.33;;
15936;SDS011;9163;48.818;8.976;2024-02-26T08:32:13;3.83;;;1.40;;
15936;SDS011;9163;48.818;8.976;2024-02-26T08:34:40;4.03;;;1.70;;
15936;SDS011;9163;48.818;8.976;2024-02-26T08:37:09;1.60;;;1.10;;
15936;SDS011;9163;48.818;8.976;2024-02-26T08:39:36;2.07;;;1.30;;
15936;SDS011;9163;48.818;8.976;2024-02-26T08:42:06;1.57;;;1.13;;
15936;SDS011;9163;48.818;8.976;2024-02-26T08:44:33;2.40;;;1.40;;
15936;SDS011;9163;48.818;8.976;2024-02-26T08:47:00;3.67;;;1.53;;
15936;SDS011;9163;48.818;8.976;2024-02-26T08:49:28;3.63;;;1.30;;
15936;SDS011;9163;48.818;8.976;2024-02-26T08:51:55;1.90;;;1.40;;
15936;SDS011;9163;48.818;8.976;2024-02-26T08:54:22;3.57;;;1.53;;
15936;SDS011;9163;48.818;8.976;2024-02-26T08:56:49;2.67;;;1.77;;
15936;SDS011;9163;48.818;8.976;2024-02-26T08:59:18;2.23;;;1.40;;
15936;SDS011;9163;48.818;8.976;2024-02-26T09:01:48;1.67;;;1.17;;
15936;SDS011;9163;48.818;8.976;2024-02-26T09:04:15;1.90;;;1.23;;
15936;SDS011;9163;48.818;8.976;2024-02-26T09:06:42;2.63;;;1.80;;
15936;SDS011;9163;48.818;8.976;2024-02-26T09:09:09;2.33;;;1.40;;
15936;SDS011;9163;48.818;8.976;2024-02-26T09:11:36;2.93;;;1.60;;
15936;SDS011;9163;48.818;8.976;2024-02-26T09:14:04;2.70;;;2.00;;
15936;SDS011;9163;48.818;8.976;2024-02-26T09:16:32;5.13;;;2.00;;
15936;SDS011;9163;48.818;8.976;2024-02-26T09:18:59;2.60;;;1.90;;
15936;SDS011;9163;48.818;8.976;2024-02-26T09:21:28;2.07;;;1.40;;
15936;SDS011;9163;48.818;8.976;2024-02-26T09:23:56;2.07;;;1.50;;
15936;SDS011;9163;48.818;8.976;2024-02-26T09:26:23;3.13;;;1.80;;
15936;SDS011;9163;48.818;8.976;2024-02-26T09:28:50;4.07;;;2.27;;
15936;SDS011;9163;48.818;8.976;2024-02-26T09:31:17;3.00;;;2.17;;
15936;SDS011;9163;48.818;8.976;2024-02-26T09:33:46;3.87;;;2.10;;
15936;SDS011;9163;48.818;8.976;2024-02-26T09:36:13;3.87;;;1.80;;
15936;SDS011;9163;48.818;8.976;2024-02-26T09:38:40;2.83;;;1.73;;
15936;SDS011;9163;48.818;8.976;2024-02-26T09:41:10;3.27;;;2.17;;
15936;SDS011;9163;48.818;8.976;2024-02-26T09:43:42;3.53;;;1.40;;
15936;SDS011;9163;48.818;8.976;2024-02-26T09:46:11;2.67;;;1.70;;
15936;SDS011;9163;48.818;8.976;2024-02-26T09:48:39;2.60;;;1.97;;
15936;SDS011;9163;48.818;8.976;2024-02-26T09:51:10;2.60;;;1.90;;
15936;SDS011;9163;48.818;8.976;2024-02-26T09:53:38;4.23;;;2.37;;
15936;SDS011;9163;48.818;8.976;2024-02-26T09:56:11;3.07;;;2.03;;
15936;SDS011;9163;48.818;8.976;2024-02-26T09:58:39;2.07;;;1.60;;
15936;SDS011;9163;48.818;8.976;2024-02-26T10:01:10;1.90;;;1.50;;
15936;SDS011;9163;48.818;8.976;2024-02-26T10:03:40;2.00;;;1.50;;
15936;SDS011;9163;48.818;8.976;2024-02-26T10:06:11;2.63;;;1.53;;
15936;SDS011;9163;48.818;8.976;2024-02-26T10:08:38;2.23;;;1.53;;
15936;SDS011;9163;48.818;8.976;2024-02-26T10:11:07;2.20;;;1.10;;
15936;SDS011;9163;48.818;8.976;2024-02-26T10:13:34;1.67;;;1.20;;
15936;SDS011;9163;48.818;8.976;2024-02-26T10:16:02;1.67;;;1.30;;
15936;SDS011;9163;48.818;8.976;2024-02-26T10:18:44;2.67;;;1.37;;
15936;SDS011;9163;48.818;8.976;2024-02-26T10:21:13;1.67;;;1.10;;
15936;SDS011;9163;48.818;8.976;2024-02-26T10:23:43;2.33;;;1.30;;
15936;SDS011;9163;48.818;8.976;2024-02-26T10:26:11;2.70;;;1.63;;
15936;SDS011;9163;48.818;8.976;2024-02-26T10:28:39;1.83;;;1.47;;
15936;SDS011;9163;48.818;8.976;2024-02-26T10:31:07;1.43;;;1.20;;
15936;SDS011;9163;48.818;8.976;2024-02-26T10:33:35;4.37;;;1.90;;
15936;SDS011;9163;48.818;8.976;2024-02-26T10:36:02;3.27;;;1.90;;
15936;SDS011;9163;48.818;8.976;2024-02-26T10:38:32;3.90;;;2.17;;
15936;SDS011;9163;48.818;8.976;2024-02-26T10:41:01;5.80;;;3.20;;
15936;SDS011;9163;48.818;8.976;2024-02-26T10:43:28;5.23;;;2.60;;
15936;SDS011;9163;48.818;8.976;2024-02-26T10:45:56;5.40;;;2.80;;
15936;SDS011;9163;48.818;8.976;2024-02-26T10:48:23;5.47;;;2.50;;
15936;SDS011;9163;48.818;8.976;2024-02-26T10:50:51;4.77;;;2.87;;
15936;SDS011;9163;48.818;8.976;2024-02-26T10:53:20;3.10;;;2.10;;
15936;SDS011;9163;48.818;8.976;2024-02-26T10:55:55;3.47;;;2.40;;
15936;SDS011;9163;48.818;8.976;2024-02-26T10:58:25;3.77;;;2.13;;
15936;SDS011;9163;48.818;8.976;2024-02-26T11:00:53;3.63;;;2.53;;
15936;SDS011;9163;48.818;8.976;2024-02-26T11:03:23;5.60;;;2.70;;
15936;SDS011;9163;48.818;8.976;2024-02-26T11:05:51;5.00;;;3.07;;
15936;SDS011;9163;48.818;8.976;2024-02-26T11:08:19;2.33;;;2.03;;
15936;SDS011;9163;48.818;8.976;2024-02-26T11:10:47;3.20;;;2.20;;
15936;SDS011;9163;48.818;8.976;2024-02-26T11:13:19;4.80;;;2.30;;
15936;SDS011;9163;48.818;8.976;2024-02-26T11:15:47;3.83;;;2.80;;
15936;SDS011;9163;48.818;8.976;2024-02-26T11:18:15;3.92;;;2.50;;
15936;SDS011;9163;48.818;8.976;2024-02-26T11:20:43;4.13;;;2.30;;
15936;SDS011;9163;48.818;8.976;2024-02-26T11:23:12;3.75;;;2.38;;
15936;SDS011;9163;48.818;8.976;2024-02-26T11:25:40;2.35;;;2.10;;
15936;SDS011;9163;48.818;8.976;2024-02-26T11:28:11;3.90;;;2.38;;
15936;SDS011;9163;48.818;8.976;2024-02-26T11:30:42;2.75;;;1.88;;
15936;SDS011;9163;48.818;8.976;2024-02-26T11:33:13;4.10;;;2.10;;
15936;SDS011;9163;48.818;8.976;2024-02-26T11:35:41;3.60;;;2.17;;
15936;SDS011;9163;48.818;8.976;2024-02-26T11:38:09;3.60;;;2.35;;
15936;SDS011;9163;48.818;8.976;2024-02-26T11:40:44;3.53;;;2.50;;
15936;SDS011;9163;48.818;8.976;2024-02-26T11:43:13;4.22;;;2.53;;
15936;SDS011;9163;48.818;8.976;2024-02-26T11:45:52;4.53;;;2.40;;
15936;SDS011;9163;48.818;8.976;2024-02-26T11:48:22;3.97;;;2.33;;
15936;SDS011;9163;48.818;8.976;2024-02-26T11:50:51;3.85;;;2.10;;
15936;SDS011;9163;48.818;8.976;2024-02-26T11:53:23;4.65;;;2.20;;
15936;SDS011;9163;48.818;8.976;2024-02-26T11:59:00;5.95;;;2.00;;
15936;SDS011;9163;48.818;8.976;2024-02-26T12:01:37;2.53;;;1.90;;
15936;SDS011;9163;48.818;8.976;2024-02-26T12:04:08;5.45;;;2.10;;
15936;SDS011;9163;48.818;8.976;2024-02-26T12:06:44;3.53;;;2.22;;
15936;SDS011;9163;48.818;8.976;2024-02-26T12:09:36;3.58;;;2.10;;
15936;SDS011;9163;48.818;8.976;2024-02-26T12:12:05;9.07;;;2.20;;
15936;SDS011;9163;48.818;8.976;2024-02-26T12:14:34;1.77;;;1.65;;
15936;SDS011;9163;48.818;8.976;2024-02-26T12:17:03;3.40;;;1.98;;
15936;SDS011;9163;48.818;8.976;2024-02-26T12:19:32;4.10;;;1.90;;
15936;SDS011;9163;48.818;8.976;2024-02-26T12:22:01;5.88;;;2.00;;
15936;SDS011;9163;48.818;8.976;2024-02-26T12:24:29;4.93;;;1.73;;
15936;SDS011;9163;48.818;8.976;2024-02-26T12:26:56;2.77;;;1.70;;
15936;SDS011;9163;48.818;8.976;2024-02-26T12:29:23;2.97;;;1.57;;
15936;SDS011;9163;48.818;8.976;2024-02-26T12:31:52;3.30;;;1.67;;
15936;SDS011;9163;48.818;8.976;2024-02-26T12:34:19;1.97;;;1.53;;
15936;SDS011;9163;48.818;8.976;2024-02-26T12:36:48;2.93;;;1.50;;
15936;SDS011;9163;48.818;8.976;2024-02-26T12:39:15;3.93;;;1.53;;
15936;SDS011;9163;48.818;8.976;2024-02-26T12:41:42;3.13;;;1.60;;
15936;SDS011;9163;48.818;8.976;2024-02-26T12:44:15;2.37;;;1.50;;
15936;SDS011;9163;48.818;8.976;2024-02-26T12:46:42;3.80;;;1.73;;
15936;SDS011;9163;48.818;8.976;2024-02-26T12:49:14;1.67;;;1.40;;
15936;SDS011;9163;48.818;8.976;2024-02-26T12:51:42;2.67;;;1.50;;
15936;SDS011;9163;48.818;8.976;2024-02-26T12:54:10;2.53;;;1.33;;
15936;SDS011;9163;48.818;8.976;2024-02-26T12:56:38;2.63;;;1.40;;
15936;SDS011;9163;48.818;8.976;2024-02-26T12:59:05;1.47;;;1.10;;
15936;SDS011;9163;48.818;8.976;2024-02-26T13:01:33;3.33;;;1.20;;
15936;SDS011;9163;48.818;8.976;2024-02-26T13:04:01;2.80;;;1.30;;
15936;SDS011;9163;48.818;8.976;2024-02-26T13:06:33;4.03;;;1.30;;
15936;SDS011;9163;48.818;8.976;2024-02-26T13:09:01;3.17;;;1.20;;
15936;SDS011;9163;48.818;8.976;2024-02-26T13:11:29;1.43;;;1.07;;
15936;SDS011;9163;48.818;8.976;2024-02-26T13:13:58;1.10;;;0.90;;
15936;SDS011;9163;48.818;8.976;2024-02-26T13:16:25;2.73;;;1.13;;
15936;SDS011;9163;48.818;8.976;2024-02-26T13:18:53;1.63;;;1.10;;
15936;SDS011;9163;48.818;8.976;2024-02-26T13:21:20;1.57;;;1.07;;
15936;SDS011;9163;48.818;8.976;2024-02-26T13:23:52;2.13;;;1.30;;
15936;SDS011;9163;48.818;8.976;2024-02-26T13:26:21;1.87;;;1.30;;
15936;SDS011;9163;48.818;8.976;2024-02-26T13:28:58;2.85;;;1.25;;
15936;SDS011;9163;48.818;8.976;2024-02-26T13:31:27;1.67;;;1.20;;
15936;SDS011;9163;48.818;8.976;2024-02-26T13:33:54;3.03;;;1.10;;
15936;SDS011;9163;48.818;8.976;2024-02-26T13:36:21;1.75;;;0.90;;
15936;SDS011;9163;48.818;8.976;2024-02-26T13:38:53;2.90;;;1.20;;
15936;SDS011;9163;48.818;8.976;2024-02-26T13:41:21;1.10;;;0.95;;
15936;SDS011;9163;48.818;8.976;2024-02-26T13:43:49;1.88;;;0.90;;
15936;SDS011;9163;48.818;8.976;2024-02-26T13:46:17;1.00;;;0.90;;
15936;SDS011;9163;48.818;8.976;2024-02-26T13:48:44;1.70;;;0.80;;
15936;SDS011;9163;48.818;8.976;2024-02-26T13:51:11;0.80;;;0.70;;
15936;SDS011;9163;48.818;8.976;2024-02-26T13:53:38;1.83;;;0.80;;
15936;SDS011;9163;48.818;8.976;2024-02-26T13:56:07;2.55;;;0.80;;
15936;SDS011;9163;48.818;8.976;2024-02-26T13:58:36;0.82;;;0.60;;
15936;SDS011;9163;48.818;8.976;2024-02-26T14:01:03;1.30;;;0.80;;
15936;SDS011;9163;48.818;8.976;2024-02-26T14:03:31;1.33;;;0.90;;
15936;SDS011;9163;48.818;8.976;2024-02-26T14:05:58;0.95;;;0.70;;
15936;SDS011;9163;48.818;8.976;2024-02-26T14:08:25;0.93;;;0.70;;
15936;SDS011;9163;48.818;8.976;2024-02-26T14:10:53;0.60;;;0.52;;
15936;SDS011;9163;48.818;8.976;2024-02-26T14:13:21;0.60;;;0.52;;
15936;SDS011;9163;48.818;8.976;2024-02-26T14:15:49;0.63;;;0.57;;
15936;SDS011;9163;48.818;8.976;2024-02-26T14:18:16;0.93;;;0.57;;
15936;SDS011;9163;48.818;8.976;2024-02-26T14:20:43;0.73;;;0.73;;
15936;SDS011;9163;48.818;8.976;2024-02-26T14:23:11;0.68;;;0.65;;
15936;SDS011;9163;48.818;8.976;2024-02-26T14:25:38;1.70;;;0.70;;
15936;SDS011;9163;48.818;8.976;2024-02-26T14:28:05;0.93;;;0.73;;
15936;SDS011;9163;48.818;8.976;2024-02-26T14:30:34;1.27;;;0.70;;
15936;SDS011;9163;48.818;8.976;2024-02-26T14:33:01;1.27;;;0.70;;
15936;SDS011;9163;48.818;8.976;2024-02-26T14:35:29;1.23;;;0.80;;
15936;SDS011;9163;48.818;8.976;2024-02-26T14:37:56;1.42;;;0.80;;
15936;SDS011;9163;48.818;8.976;2024-02-26T14:40:26;1.30;;;0.70;;
15936;SDS011;9163;48.818;8.976;2024-02-26T14:42:53;0.70;;;0.70;;
15936;SDS011;9163;48.818;8.976;2024-02-26T14:45:22;0.90;;;0.70;;
15936;SDS011;9163;48.818;8.976;2024-02-26T14:47:50;0.60;;;0.60;;
15936;SDS011;9163;48.818;8.976;2024-02-26T14:50:18;1.42;;;0.40;;
15936;SDS011;9163;48.818;8.976;2024-02-26T14:52:45;1.15;;;0.70;;
15936;SDS011;9163;48.818;8.976;2024-02-26T14:55:13;2.63;;;0.60;;
15936;SDS011;9163;48.818;8.976;2024-02-26T14:57:40;0.52;;;0.50;;
15936;SDS011;9163;48.818;8.976;2024-02-26T15:00:08;1.88;;;0.70;;
15936;SDS011;9163;48.818;8.976;2024-02-26T15:02:36;1.58;;;0.60;;
15936;SDS011;9163;48.818;8.976;2024-02-26T15:05:05;0.65;;;0.50;;
15936;SDS011;9163;48.818;8.976;2024-02-26T15:07:34;1.90;;;0.67;;
15936;SDS011;9163;48.818;8.976;2024-02-26T15:10:05;0.73;;;0.60;;